createdAt,value
2023-11-24T00:00:14.729Z,985
2023-11-24T00:01:15.707Z,985.1
2023-11-24T00:02:16.841Z,985.1
2023-11-24T00:03:17.727Z,985.1
2023-11-24T00:04:18.712Z,985.1
2023-11-24T00:05:19.682Z,985.1
2023-11-24T00:06:20.720Z,985.1
2023-11-24T00:07:21.710Z,985.2
2023-11-24T00:08:22.687Z,985.2
2023-11-24T00:09:23.742Z,985.2
2023-11-24T00:10:24.734Z,985.2
2023-11-24T00:11:26.767Z,985.1
2023-11-24T00:12:27.718Z,985.1
2023-11-24T00:13:28.692Z,985.1
2023-11-24T00:14:29.733Z,985.1
2023-11-24T00:15:30.765Z,985.1
2023-11-24T00:16:31.752Z,985.1
2023-11-24T00:17:32.714Z,985
2023-11-24T00:18:33.728Z,985
2023-11-24T00:19:34.745Z,985
2023-11-24T00:20:35.751Z,985
2023-11-24T00:21:36.808Z,984.9
2023-11-24T00:22:37.699Z,984.9
2023-11-24T00:23:38.699Z,984.8
2023-11-24T00:24:39.753Z,984.9
2023-11-24T00:25:40.704Z,984.9
2023-11-24T00:26:41.756Z,984.9
2023-11-24T00:27:45.453Z,984.8
2023-11-24T00:28:46.743Z,984.8
2023-11-24T00:29:47.704Z,984.8
2023-11-24T00:30:48.727Z,984.8
2023-11-24T00:31:49.740Z,984.7
2023-11-24T00:32:50.772Z,984.7
2023-11-24T00:33:52.823Z,984.6
2023-11-24T00:34:53.698Z,984.7
2023-11-24T00:35:54.708Z,984.6
2023-11-24T00:36:56.019Z,984.7
2023-11-24T00:37:56.690Z,984.7
2023-11-24T00:38:57.730Z,984.7
2023-11-24T00:39:58.724Z,984.6
2023-11-24T00:40:59.718Z,984.5
2023-11-24T00:42:00.768Z,984.6
2023-11-24T00:43:01.765Z,984.6
2023-11-24T00:44:02.696Z,984.7
2023-11-24T00:45:03.707Z,984
2023-11-24T00:46:04.725Z,984.5
2023-11-24T00:47:06.713Z,984.5
2023-11-24T00:48:07.720Z,984.6
2023-11-24T00:49:08.696Z,984.6
2023-11-24T00:50:09.734Z,984.6
2023-11-24T00:51:11.190Z,984.7
2023-11-24T00:52:11.806Z,984.7
2023-11-24T00:53:12.726Z,984.7
2023-11-24T00:54:13.705Z,984.7
2023-11-24T00:55:14.704Z,984.7
2023-11-24T00:56:15.718Z,984.7
2023-11-24T00:57:16.720Z,984.7
2023-11-24T00:58:17.730Z,984.6
2023-11-24T00:59:18.721Z,984.7
2023-11-24T01:00:19.815Z,984.8
2023-11-24T01:01:20.716Z,984.8
2023-11-24T01:02:21.757Z,984.8
2023-11-24T01:03:22.794Z,984.8
2023-11-24T01:04:23.792Z,984.9
2023-11-24T01:05:24.750Z,984.9
2023-11-24T01:06:25.793Z,984.9
2023-11-24T01:07:26.767Z,984.9
2023-11-24T01:08:27.979Z,984.9
2023-11-24T01:09:28.762Z,984.9
2023-11-24T01:10:29.783Z,984.7
2023-11-24T01:11:30.714Z,984.6
2023-11-24T01:12:31.771Z,984.4
2023-11-24T01:13:32.712Z,984.4
2023-11-24T01:14:33.730Z,984.4
2023-11-24T01:15:34.728Z,984.5
2023-11-24T01:16:35.735Z,984.5
2023-11-24T01:17:36.853Z,984.5
2023-11-24T01:18:37.802Z,984.4
2023-11-24T01:19:38.746Z,984.4
2023-11-24T01:20:39.790Z,984.4
2023-11-24T01:21:40.733Z,984.4
2023-11-24T01:22:41.814Z,984.4
2023-11-24T01:23:42.758Z,984.3
2023-11-24T01:24:43.816Z,984.4
2023-11-24T01:25:44.791Z,984.4
2023-11-24T01:26:45.726Z,984.3
2023-11-24T01:27:46.765Z,984.3
2023-11-24T01:28:47.753Z,984.2
2023-11-24T01:29:48.720Z,984.4
2023-11-24T01:30:49.760Z,984.4
2023-11-24T01:31:50.763Z,984.4
2023-11-24T01:32:51.764Z,984.5
2023-11-24T01:33:52.750Z,984.6
2023-11-24T01:34:53.727Z,984.5
2023-11-24T01:35:54.753Z,984.5
2023-11-24T01:36:55.819Z,984.5
2023-11-24T01:37:56.762Z,984.5
2023-11-24T01:38:57.721Z,984.4
2023-11-24T01:40:01.735Z,984.4
2023-11-24T01:41:02.764Z,984.5
2023-11-24T01:42:03.766Z,984.5
2023-11-24T01:43:04.737Z,984.6
2023-11-24T01:44:05.765Z,984.6
2023-11-24T01:45:06.715Z,984.6
2023-11-24T01:46:07.798Z,984.5
2023-11-24T01:47:08.761Z,984.5
2023-11-24T01:48:09.719Z,984.4
2023-11-24T01:49:10.954Z,984.4
2023-11-24T01:50:11.733Z,984.3
2023-11-24T01:51:12.721Z,984.4
2023-11-24T01:52:13.771Z,984.4
2023-11-24T01:53:14.766Z,984.1
2023-11-24T01:54:15.755Z,984.6
2023-11-24T01:55:16.739Z,984.5
2023-11-24T01:56:17.725Z,984.7
2023-11-24T01:57:18.760Z,984.6
2023-11-24T01:58:19.751Z,984.6
2023-11-24T01:59:20.740Z,984.7
2023-11-24T02:00:21.873Z,984.6
2023-11-24T02:01:22.756Z,984.4
2023-11-24T02:02:23.942Z,984.5
2023-11-24T02:03:24.763Z,984.5
2023-11-24T02:04:25.783Z,984.6
2023-11-24T02:05:26.760Z,984.5
2023-11-24T02:06:27.789Z,984.4
2023-11-24T02:07:28.746Z,984.4
2023-11-24T02:08:29.755Z,984.4
2023-11-24T02:09:30.770Z,984.4
2023-11-24T02:10:31.756Z,984.3
2023-11-24T02:11:32.770Z,984.3
2023-11-24T02:12:33.777Z,984.3
2023-11-24T02:13:35.753Z,984.3
2023-11-24T02:14:36.743Z,984.2
2023-11-24T02:15:37.786Z,984.3
2023-11-24T02:16:38.786Z,984.4
2023-11-24T02:17:39.890Z,984.4
2023-11-24T02:18:40.793Z,984.4
2023-11-24T02:19:41.786Z,984.4
2023-11-24T02:20:45.344Z,984.4
2023-11-24T02:21:45.768Z,984.3
2023-11-24T02:22:46.770Z,984.4
2023-11-24T02:23:47.825Z,984.4
2023-11-24T02:24:48.798Z,984.4
2023-11-24T02:25:49.745Z,984.3
2023-11-24T02:26:50.810Z,984.3
2023-11-24T02:27:51.792Z,984.3
2023-11-24T02:28:55.566Z,984.3
2023-11-24T02:30:57.888Z,984.3
2023-11-24T02:31:58.761Z,984.3
2023-11-24T02:32:59.786Z,984.2
2023-11-24T02:34:00.880Z,984.2
2023-11-24T02:35:01.836Z,984.2
2023-11-24T02:36:02.771Z,984.2
2023-11-24T02:37:03.892Z,984.1
2023-11-24T02:38:07.059Z,984.1
2023-11-24T02:39:07.772Z,984.1
2023-11-24T02:40:08.806Z,984.2
2023-11-24T02:42:11.770Z,984.1
2023-11-24T02:43:12.751Z,984.2
2023-11-24T02:44:13.786Z,984.1
2023-11-24T02:45:14.754Z,984.3
2023-11-24T02:46:15.777Z,984.4
2023-11-24T02:47:16.857Z,984.3
2023-11-24T02:48:17.826Z,984.2
2023-11-24T02:49:18.789Z,984.2
2023-11-24T02:50:19.775Z,984.3
2023-11-24T02:51:20.756Z,984.5
2023-11-24T02:52:22.056Z,984.4
2023-11-24T02:53:22.800Z,984.3
2023-11-24T02:54:23.870Z,984.4
2023-11-24T02:55:24.817Z,984.3
2023-11-24T02:56:25.838Z,984.2
2023-11-24T02:57:26.830Z,984.4
2023-11-24T02:58:27.782Z,984.4
2023-11-24T02:59:28.769Z,984.4
2023-11-24T03:00:29.902Z,984.3
2023-11-24T03:01:30.840Z,984.5
2023-11-24T03:02:31.943Z,984.6
2023-11-24T03:03:32.817Z,984.6
2023-11-24T03:04:33.777Z,984.7
2023-11-24T03:05:34.779Z,984.8
2023-11-24T03:06:35.790Z,984.8
2023-11-24T03:07:39.665Z,984.8
2023-11-24T03:08:40.795Z,984.7
2023-11-24T03:09:41.865Z,984.7
2023-11-24T03:10:42.791Z,984.7
2023-11-24T03:11:43.845Z,984.7
2023-11-24T03:12:44.880Z,984.7
2023-11-24T03:13:45.781Z,984.7
2023-11-24T03:14:46.785Z,984.7
2023-11-24T03:15:47.847Z,984.7
2023-11-24T03:16:48.844Z,984.7
2023-11-24T03:17:49.798Z,984.7
2023-11-24T03:18:50.799Z,984.7
2023-11-24T03:19:51.795Z,984.8
2023-11-24T03:20:52.771Z,984.7
2023-11-24T03:21:53.837Z,984.7
2023-11-24T03:22:56.264Z,984.7
2023-11-24T03:23:55.775Z,984.6
2023-11-24T03:24:56.927Z,984.6
2023-11-24T03:25:58.247Z,984.5
2023-11-24T03:26:58.846Z,984.6
2023-11-24T03:29:00.776Z,984.5
2023-11-24T03:30:01.900Z,984.5
2023-11-24T03:31:02.864Z,984.5
2023-11-24T03:32:03.871Z,984.4
2023-11-24T03:33:04.840Z,984.4
2023-11-24T03:34:05.867Z,984.4
2023-11-24T03:35:06.789Z,984.4
2023-11-24T03:36:07.792Z,984.5
2023-11-24T03:37:08.851Z,984.4
2023-11-24T03:38:09.788Z,984.5
2023-11-24T03:39:10.777Z,984.4
2023-11-24T03:40:11.861Z,984.5
2023-11-24T03:41:12.793Z,984.5
2023-11-24T03:42:13.817Z,984.4
2023-11-24T03:43:14.836Z,984.5
2023-11-24T03:44:15.857Z,984.5
2023-11-24T03:45:16.792Z,984.4
2023-11-24T03:46:17.824Z,984.5
2023-11-24T03:47:18.781Z,984.4
2023-11-24T03:48:19.790Z,984.3
2023-11-24T03:49:20.798Z,984.4
2023-11-24T03:50:21.850Z,984.4
2023-11-24T03:51:25.140Z,984.3
2023-11-24T03:52:25.848Z,984.4
2023-11-24T03:53:26.785Z,984.4
2023-11-24T03:54:27.812Z,984.5
2023-11-24T03:55:28.870Z,984.4
2023-11-24T03:56:29.800Z,984.3
2023-11-24T03:57:30.851Z,984.3
2023-11-24T03:58:31.783Z,984.3
2023-11-24T03:59:32.821Z,984.3
2023-11-24T04:00:33.909Z,984.4
2023-11-24T04:01:34.955Z,984.4
2023-11-24T04:02:35.804Z,984.3
2023-11-24T04:03:39.508Z,984.3
2023-11-24T04:04:40.812Z,984.4
2023-11-24T04:05:41.879Z,984.4
2023-11-24T04:06:42.830Z,984.3
2023-11-24T04:07:43.862Z,984.4
2023-11-24T04:08:44.835Z,984.3
2023-11-24T04:09:45.834Z,984.3
2023-11-24T04:10:48.844Z,984.3
2023-11-24T04:11:51.044Z,984.2
2023-11-24T04:12:51.941Z,984.2
2023-11-24T04:13:56.763Z,984.3
2023-11-24T04:14:58.813Z,984.3
2023-11-24T04:16:00.961Z,984.3
2023-11-24T04:17:02.852Z,984.3
2023-11-24T04:18:03.880Z,984.2
2023-11-24T04:19:04.897Z,984.3
2023-11-24T04:20:08.854Z,984.3
2023-11-24T04:21:09.805Z,984.3
2023-11-24T04:22:10.811Z,984.3
2023-11-24T04:23:11.807Z,984.3
2023-11-24T04:24:12.821Z,984.3
2023-11-24T04:25:13.993Z,984.2
2023-11-24T04:26:14.834Z,984.3
2023-11-24T04:27:15.798Z,984.3
2023-11-24T04:28:16.801Z,984.4
2023-11-24T04:29:18.848Z,984.3
2023-11-24T04:30:20.854Z,984.2
2023-11-24T04:31:25.500Z,984.2
2023-11-24T04:32:28.087Z,984.2
2023-11-24T04:33:32.327Z,984.2
2023-11-24T04:34:34.047Z,984.1
2023-11-24T04:35:35.932Z,984.2
2023-11-24T04:36:37.849Z,984.2
2023-11-24T04:37:39.821Z,984.3
2023-11-24T04:38:41.869Z,984.3
2023-11-24T04:39:44.031Z,984.2
2023-11-24T04:40:45.819Z,984.2
2023-11-24T04:41:48.565Z,984.3
2023-11-24T04:42:49.849Z,984.2
2023-11-24T04:43:51.840Z,984.2
2023-11-24T04:44:54.086Z,984.2
2023-11-24T04:45:55.860Z,984.2
2023-11-24T04:46:57.824Z,984.2
2023-11-24T04:47:59.917Z,984.2
2023-11-24T04:49:02.880Z,984.2
2023-11-24T04:50:03.946Z,984.2
2023-11-24T04:51:04.818Z,984.2
2023-11-24T04:52:05.874Z,984.3
2023-11-24T04:53:06.819Z,984.3
2023-11-24T04:54:07.847Z,983.5
2023-11-24T04:55:12.837Z,984.1
2023-11-24T04:56:14.850Z,984.3
2023-11-24T04:57:15.869Z,984.5
2023-11-24T04:58:17.039Z,984.3
2023-11-24T04:59:18.833Z,984.4
2023-11-24T05:00:20.891Z,984.3
2023-11-24T05:01:22.920Z,984.3
2023-11-24T05:02:24.990Z,984.3
2023-11-24T05:03:26.903Z,984.3
2023-11-24T05:04:28.862Z,984.3
2023-11-24T05:05:30.874Z,984.3
2023-11-24T05:06:32.876Z,984.2
2023-11-24T05:07:36.409Z,984.3
2023-11-24T05:08:37.878Z,984.3
2023-11-24T05:09:39.888Z,984.2
2023-11-24T05:10:41.864Z,984.2
2023-11-24T05:11:43.862Z,984.2
2023-11-24T05:12:45.901Z,984.3
2023-11-24T05:13:47.817Z,984.3
2023-11-24T05:14:49.861Z,984.3
2023-11-24T05:15:51.859Z,984.4
2023-11-24T05:16:54.959Z,984.4
2023-11-24T05:17:56.866Z,984.3
2023-11-24T05:18:58.889Z,984.3
2023-11-24T05:20:00.905Z,984.3
2023-11-24T05:21:03.846Z,984.4
2023-11-24T05:22:04.881Z,984.3
2023-11-24T05:23:05.854Z,984.4
2023-11-24T05:24:06.899Z,984.3
2023-11-24T05:25:07.869Z,984.4
2023-11-24T05:26:08.831Z,984.2
2023-11-24T05:27:09.878Z,984.4
2023-11-24T05:28:11.966Z,984.4
2023-11-24T05:29:15.709Z,984.4
2023-11-24T05:30:16.870Z,984.3
2023-11-24T05:31:17.934Z,984.4
2023-11-24T05:32:19.855Z,984.3
2023-11-24T05:33:21.895Z,984.4
2023-11-24T05:34:24.150Z,984.4
2023-11-24T05:35:25.877Z,984.4
2023-11-24T05:36:27.884Z,984.3
2023-11-24T05:37:29.841Z,984.4
2023-11-24T05:38:31.871Z,984.3
2023-11-24T05:39:33.879Z,984.4
2023-11-24T05:40:35.852Z,984.4
2023-11-24T05:41:37.893Z,984.4
2023-11-24T05:42:39.879Z,984.4
2023-11-24T05:43:41.874Z,984.4
2023-11-24T05:44:43.889Z,984.5
2023-11-24T05:45:46.030Z,984.5
2023-11-24T05:46:47.889Z,984.5
2023-11-24T05:47:49.893Z,984.5
2023-11-24T05:48:51.910Z,984.5
2023-11-24T05:49:53.868Z,984.5
2023-11-24T05:50:55.870Z,984.5
2023-11-24T05:51:57.920Z,984.5
2023-11-24T05:53:00.873Z,984.5
2023-11-24T05:54:03.009Z,984.5
2023-11-24T05:55:04.038Z,984.5
2023-11-24T05:56:04.852Z,984.5
2023-11-24T05:57:05.858Z,984.5
2023-11-24T05:58:07.034Z,984.5
2023-11-24T05:59:07.880Z,984.5
2023-11-24T06:00:08.866Z,984.5
2023-11-24T06:01:09.868Z,984.5
2023-11-24T06:02:11.881Z,984.6
2023-11-24T06:03:13.853Z,984.5
2023-11-24T06:04:15.003Z,984.5
2023-11-24T06:05:17.328Z,983.7
2023-11-24T06:06:18.885Z,984.3
2023-11-24T06:07:20.872Z,984.4
2023-11-24T06:08:22.894Z,984.4
2023-11-24T06:09:24.890Z,984.5
2023-11-24T06:10:26.885Z,984.5
2023-11-24T06:11:28.857Z,984.5
2023-11-24T06:12:31.004Z,984.5
2023-11-24T06:13:32.866Z,984.4
2023-11-24T06:14:34.900Z,984.5
2023-11-24T06:15:36.977Z,984.5
2023-11-24T06:16:38.996Z,984.5
2023-11-24T06:17:40.894Z,984.5
2023-11-24T06:18:43.220Z,984.5
2023-11-24T06:19:44.882Z,984.5
2023-11-24T06:20:46.876Z,984.5
2023-11-24T06:21:49.014Z,984.5
2023-11-24T06:22:51.953Z,984.5
2023-11-24T06:23:53.902Z,984.5
2023-11-24T06:24:55.907Z,984.5
2023-11-24T06:25:57.890Z,984.5
2023-11-24T06:26:59.860Z,984.5
2023-11-24T06:28:01.962Z,984.6
2023-11-24T06:29:04.022Z,984.6
2023-11-24T06:30:05.907Z,984.5
2023-11-24T06:31:06.930Z,984.5
2023-11-24T06:32:07.882Z,984.6
2023-11-24T06:33:08.980Z,984.5
2023-11-24T06:34:10.973Z,984.5
2023-11-24T06:35:12.966Z,984.5
2023-11-24T06:36:13.869Z,984.5
2023-11-24T06:37:15.908Z,984.5
2023-11-24T06:38:17.959Z,984.7
2023-11-24T06:39:22.897Z,984.6
2023-11-24T06:40:24.876Z,984.3
2023-11-24T06:41:26.874Z,984.6
2023-11-24T06:42:28.910Z,984.6
2023-11-24T06:43:30.887Z,984.6
2023-11-24T06:44:32.896Z,984.7
2023-11-24T06:45:35.208Z,984.6
2023-11-24T06:46:36.899Z,984.6
2023-11-24T06:47:39.937Z,984.6
2023-11-24T06:48:41.893Z,984.6
2023-11-24T06:49:44.945Z,984.6
2023-11-24T06:50:49.674Z,984.5
2023-11-24T06:51:51.911Z,984.5
2023-11-24T06:52:53.897Z,984.5
2023-11-24T06:53:55.936Z,984.5
2023-11-24T06:54:56.908Z,984.5
2023-11-24T06:55:58.908Z,984.5
2023-11-24T06:57:00.934Z,984.5
2023-11-24T06:58:03.047Z,984.5
2023-11-24T06:59:04.905Z,984.5
2023-11-24T07:00:06.962Z,984.5
2023-11-24T07:01:08.041Z,984.5
2023-11-24T07:02:08.937Z,984.5
2023-11-24T07:03:09.982Z,984.5
2023-11-24T07:04:11.004Z,984.6
2023-11-24T07:05:11.881Z,984.4
2023-11-24T07:06:13.926Z,984.5
2023-11-24T07:07:14.926Z,984.4
2023-11-24T07:08:16.908Z,984.5
2023-11-24T07:09:18.935Z,984.4
2023-11-24T07:10:20.956Z,984.5
2023-11-24T07:11:22.937Z,984.4
2023-11-24T07:12:24.924Z,984.5
2023-11-24T07:13:26.965Z,984.5
2023-11-24T07:14:28.899Z,984.5
2023-11-24T07:15:30.905Z,984.5
2023-11-24T07:16:33.019Z,984.6
2023-11-24T07:17:34.955Z,984.6
2023-11-24T07:18:37.070Z,984.5
2023-11-24T07:19:38.955Z,984.5
2023-11-24T07:20:40.886Z,984.6
2023-11-24T07:21:42.932Z,984.6
2023-11-24T07:22:44.948Z,984.5
2023-11-24T07:23:46.920Z,984.5
2023-11-24T07:24:48.932Z,984.1
2023-11-24T07:25:50.954Z,984.4
2023-11-24T07:26:52.967Z,984.5
2023-11-24T07:27:54.971Z,984.5
2023-11-24T07:28:56.921Z,984.6
2023-11-24T07:29:58.940Z,984.6
2023-11-24T07:31:01.021Z,984.5
2023-11-24T07:32:02.997Z,984.5
2023-11-24T07:33:04.976Z,984.5
2023-11-24T07:34:07.023Z,984.5
2023-11-24T07:35:07.968Z,984.4
2023-11-24T07:36:08.965Z,984.4
2023-11-24T07:37:09.939Z,984.4
2023-11-24T07:38:10.903Z,984.4
2023-11-24T07:39:11.917Z,984.4
2023-11-24T07:40:12.902Z,984.4
2023-11-24T07:41:13.936Z,984.4
2023-11-24T07:42:15.990Z,984.4
2023-11-24T07:43:18.040Z,984.4
2023-11-24T07:44:20.006Z,984.4
2023-11-24T07:45:21.926Z,984.4
2023-11-24T07:46:24.063Z,984.4
2023-11-24T07:47:28.380Z,984.4
2023-11-24T07:48:27.993Z,984.3
2023-11-24T07:49:29.961Z,984.3
2023-11-24T07:50:31.983Z,984.3
2023-11-24T07:51:33.994Z,984.4
2023-11-24T07:52:36.545Z,984.4
2023-11-24T07:53:41.190Z,984.5
2023-11-24T07:54:43.044Z,984.6
2023-11-24T07:55:44.952Z,984.6
2023-11-24T07:56:46.934Z,984.6
2023-11-24T07:57:48.980Z,984.5
2023-11-24T07:58:50.977Z,984.5
2023-11-24T07:59:55.945Z,984.6
2023-11-24T08:00:57.997Z,984.6
2023-11-24T08:02:00.032Z,984.5
2023-11-24T08:03:01.939Z,984.5
2023-11-24T08:04:04.192Z,984.4
2023-11-24T08:05:05.944Z,984.3
2023-11-24T08:06:07.960Z,984.3
2023-11-24T08:07:08.924Z,984.1
2023-11-24T08:08:09.928Z,984.1
2023-11-24T08:09:10.985Z,984
2023-11-24T08:10:12.965Z,984
2023-11-24T08:11:14.938Z,984.1
2023-11-24T08:12:15.990Z,984.1
2023-11-24T08:13:17.011Z,984.1
2023-11-24T08:14:18.944Z,984.2
2023-11-24T08:15:20.992Z,984.2
2023-11-24T08:16:23.018Z,984.2
2023-11-24T08:17:24.944Z,984.2
2023-11-24T08:18:26.964Z,984.2
2023-11-24T08:19:30.203Z,984.2
2023-11-24T08:20:31.962Z,984.2
2023-11-24T08:21:33.983Z,984.2
2023-11-24T08:22:35.980Z,984.2
2023-11-24T08:23:37.909Z,984.2
2023-11-24T08:24:40.072Z,984.2
2023-11-24T08:25:41.942Z,984.1
2023-11-24T08:26:44.009Z,984.2
2023-11-24T08:27:45.995Z,984.1
2023-11-24T08:28:47.951Z,984.1
2023-11-24T08:29:52.841Z,984.2
2023-11-24T08:30:54.974Z,984
2023-11-24T08:31:56.963Z,984
2023-11-24T08:32:59.028Z,983.9
2023-11-24T08:34:01.029Z,983.9
2023-11-24T08:35:02.973Z,983.8
2023-11-24T08:36:04.973Z,983.8
2023-11-24T08:37:06.977Z,983.8
2023-11-24T08:38:08.955Z,983.8
2023-11-24T08:39:10.929Z,983.8
2023-11-24T08:40:12.028Z,983.8
2023-11-24T08:41:20.827Z,983.8
2023-11-24T08:42:15.963Z,983.8
2023-11-24T08:43:18.018Z,983.8
2023-11-24T08:44:19.966Z,983.8
2023-11-24T08:45:21.973Z,983.7
2023-11-24T08:46:24.038Z,983.7
2023-11-24T08:47:26.031Z,983.7
2023-11-24T08:48:27.980Z,983.7
2023-11-24T08:49:30.198Z,983.7
2023-11-24T08:50:31.940Z,983.7
2023-11-24T08:51:34.019Z,983.8
2023-11-24T08:52:35.926Z,983.8
2023-11-24T08:53:37.986Z,983.7
2023-11-24T08:54:39.996Z,983.7
2023-11-24T08:55:40.963Z,983.8
2023-11-24T08:56:43.281Z,983.8
2023-11-24T08:57:45.243Z,983.7
2023-11-24T08:58:46.985Z,983.7
2023-11-24T08:59:49.021Z,983.8
2023-11-24T09:00:50.982Z,983.7
2023-11-24T09:01:53.129Z,983.8
2023-11-24T09:02:55.041Z,983.7
2023-11-24T09:03:57.003Z,983.3
2023-11-24T09:05:01.804Z,983.6
2023-11-24T09:06:03.999Z,983.7
2023-11-24T09:07:05.979Z,983.7
2023-11-24T09:08:07.973Z,983.7
2023-11-24T09:09:08.968Z,983.7
2023-11-24T09:10:10.258Z,983.7
2023-11-24T09:11:13.540Z,983.6
2023-11-24T09:12:13.971Z,983.6
2023-11-24T09:13:14.982Z,983.6
2023-11-24T09:14:15.977Z,983
2023-11-24T09:15:16.972Z,983.4
2023-11-24T09:16:19.092Z,983.5
2023-11-24T09:17:21.031Z,983.5
2023-11-24T09:18:23.014Z,983.5
2023-11-24T09:19:24.998Z,983.6
2023-11-24T09:20:27.059Z,983.5
2023-11-24T09:21:28.972Z,983.6
2023-11-24T09:22:30.996Z,983.5
2023-11-24T09:23:33.005Z,983.6
2023-11-24T09:24:35.042Z,983.6
2023-11-24T09:25:37.024Z,983.7
2023-11-24T09:26:38.976Z,983.7
2023-11-24T09:27:41.136Z,983.7
2023-11-24T09:28:42.998Z,983.7
2023-11-24T09:29:44.982Z,983.8
2023-11-24T09:30:47.054Z,983.8
2023-11-24T09:31:48.965Z,983.8
2023-11-24T09:32:51.038Z,983.8
2023-11-24T09:33:53.023Z,983.8
2023-11-24T09:34:54.987Z,983.8
2023-11-24T09:35:57.029Z,983.8
2023-11-24T09:36:58.992Z,983.7
2023-11-24T09:38:01.012Z,983.7
2023-11-24T09:39:02.986Z,983.7
2023-11-24T09:40:04.986Z,983.7
2023-11-24T09:41:06.988Z,983.7
2023-11-24T09:42:08.954Z,983.8
2023-11-24T09:43:10.005Z,983.7
2023-11-24T09:44:10.976Z,983.7
2023-11-24T09:45:12.001Z,983.6
2023-11-24T09:46:14.102Z,983.7
2023-11-24T09:47:14.982Z,983.6
2023-11-24T09:48:17.057Z,983.6
2023-11-24T09:49:18.964Z,983.7
2023-11-24T09:50:21.007Z,983.6
2023-11-24T09:51:23.067Z,983.6
2023-11-24T09:52:24.993Z,983.6
2023-11-24T09:53:27.000Z,983.5
2023-11-24T09:54:32.009Z,983.6
2023-11-24T09:55:33.969Z,983.5
2023-11-24T09:56:36.011Z,983.5
2023-11-24T09:57:37.999Z,983.4
2023-11-24T09:58:39.972Z,983.4
2023-11-24T09:59:41.987Z,983.4
2023-11-24T10:00:44.041Z,983.4
2023-11-24T10:01:45.997Z,983.4
2023-11-24T10:02:48.068Z,983.4
2023-11-24T10:03:50.106Z,983.3
2023-11-24T10:04:52.005Z,983.3
2023-11-24T10:05:54.024Z,983.2
2023-11-24T10:06:56.043Z,983.3
2023-11-24T10:07:57.984Z,983.3
2023-11-24T10:09:01.684Z,983.3
2023-11-24T10:10:04.198Z,983.3
2023-11-24T10:11:05.991Z,983.4
2023-11-24T10:12:07.992Z,983.3
2023-11-24T10:13:10.000Z,983.3
2023-11-24T10:14:10.975Z,983.3
2023-11-24T10:15:11.974Z,983.3
2023-11-24T10:16:13.050Z,983.2
2023-11-24T10:17:15.013Z,983.3
2023-11-24T10:18:17.042Z,983.3
2023-11-24T10:19:20.872Z,983.3
2023-11-24T10:20:21.006Z,983.3
2023-11-24T10:21:27.492Z,983.2
2023-11-24T10:22:24.300Z,983.3
2023-11-24T10:23:27.033Z,983.2
2023-11-24T10:24:28.978Z,983.3
2023-11-24T10:25:31.397Z,983.3
2023-11-24T10:26:33.067Z,983.2
2023-11-24T10:27:35.004Z,983.2
2023-11-24T10:28:37.033Z,983.1
2023-11-24T10:29:38.998Z,983.2
2023-11-24T10:30:41.040Z,983.1
2023-11-24T10:31:43.038Z,983.2
2023-11-24T10:32:45.029Z,983.2
2023-11-24T10:33:47.111Z,983.1
2023-11-24T10:34:49.127Z,983.1
2023-11-24T10:35:51.013Z,983.1
2023-11-24T10:36:53.022Z,983.1
2023-11-24T10:37:55.033Z,983.1
2023-11-24T10:38:57.037Z,983.1
2023-11-24T10:39:59.098Z,983.1
2023-11-24T10:41:04.002Z,983
2023-11-24T10:42:03.014Z,983
2023-11-24T10:43:05.011Z,983.1
2023-11-24T10:44:06.994Z,983
2023-11-24T10:45:09.018Z,982.9
2023-11-24T10:46:12.454Z,982.9
2023-11-24T10:47:12.060Z,982.9
2023-11-24T10:48:13.009Z,982.9
2023-11-24T10:49:15.301Z,982.8
2023-11-24T10:50:17.039Z,982.7
2023-11-24T10:51:19.068Z,982.8
2023-11-24T10:52:21.124Z,982.8
2023-11-24T10:53:23.038Z,982.8
2023-11-24T10:54:25.067Z,982.8
2023-11-24T10:55:27.089Z,982.8
2023-11-24T10:56:29.049Z,982.8
2023-11-24T10:57:31.019Z,982.8
2023-11-24T10:58:33.021Z,982.8
2023-11-24T10:59:35.000Z,982.8
2023-11-24T11:00:37.156Z,982.8
2023-11-24T11:01:39.200Z,982.8
2023-11-24T11:02:41.166Z,982.8
2023-11-24T11:03:43.161Z,982.8
2023-11-24T11:04:45.055Z,982.7
2023-11-24T11:05:47.040Z,982.6
2023-11-24T11:06:49.086Z,982.5
2023-11-24T11:07:50.997Z,982.6
2023-11-24T11:08:54.723Z,982.5
2023-11-24T11:09:57.102Z,982.5
2023-11-24T11:10:59.066Z,982.6
2023-11-24T11:12:01.082Z,982.6
2023-11-24T11:13:04.615Z,982.5
2023-11-24T11:14:06.318Z,982.5
2023-11-24T11:15:08.100Z,982.5
2023-11-24T11:16:10.050Z,982.5
2023-11-24T11:17:13.721Z,982.5
2023-11-24T11:18:16.076Z,982.5
2023-11-24T11:19:16.086Z,982.5
2023-11-24T11:20:18.057Z,982.5
2023-11-24T11:21:20.041Z,982.4
2023-11-24T11:22:22.056Z,982.4
2023-11-24T11:23:24.072Z,982.5
2023-11-24T11:24:26.081Z,982.5
2023-11-24T11:25:28.051Z,982.5
2023-11-24T11:26:30.072Z,982.5
2023-11-24T11:27:32.073Z,982.2
2023-11-24T11:28:35.069Z,982.5
2023-11-24T11:29:37.076Z,982.5
2023-11-24T11:30:41.784Z,982.6
2023-11-24T11:31:44.171Z,982.5
2023-11-24T11:32:47.886Z,982.5
2023-11-24T11:33:51.132Z,982.6
2023-11-24T11:34:53.020Z,982.6
2023-11-24T11:35:55.182Z,982.6
2023-11-24T11:36:58.078Z,982.6
2023-11-24T11:38:01.079Z,982.6
2023-11-24T11:39:03.037Z,982.7
2023-11-24T11:40:05.182Z,982.7
2023-11-24T11:41:07.151Z,982.7
2023-11-24T11:42:09.126Z,982.7
2023-11-24T11:43:11.093Z,982.6
2023-11-24T11:44:12.159Z,982.6
2023-11-24T11:45:13.028Z,982.6
2023-11-24T11:46:15.117Z,982.5
2023-11-24T11:47:19.123Z,982.5
2023-11-24T11:48:21.072Z,982.5
2023-11-24T11:49:23.124Z,982.4
2023-11-24T11:50:25.035Z,982.4
2023-11-24T11:51:27.112Z,982.4
2023-11-24T11:52:29.390Z,982.4
2023-11-24T11:53:31.086Z,982.4
2023-11-24T11:54:33.074Z,981.8
2023-11-24T11:55:35.143Z,982.2
2023-11-24T11:56:37.027Z,982.4
2023-11-24T11:57:39.056Z,982.3
2023-11-24T11:58:41.034Z,982.3
2023-11-24T11:59:43.076Z,982.3
2023-11-24T12:00:45.116Z,982.3
2023-11-24T12:01:47.273Z,982.3
2023-11-24T12:02:49.184Z,982.3
2023-11-24T12:03:51.609Z,982.3
2023-11-24T12:04:54.069Z,982.3
2023-11-24T12:05:56.046Z,982.3
2023-11-24T12:06:58.120Z,982.4
2023-11-24T12:08:00.071Z,982.1
2023-11-24T12:09:02.130Z,982.3
2023-11-24T12:10:04.153Z,982.4
2023-11-24T12:11:06.174Z,982.5
2023-11-24T12:12:08.050Z,982.4
2023-11-24T12:13:10.100Z,982.4
2023-11-24T12:14:11.018Z,982.4
2023-11-24T12:15:12.271Z,982.4
2023-11-24T12:16:13.117Z,982.5
2023-11-24T12:17:15.142Z,982.4
2023-11-24T12:18:17.171Z,982.4
2023-11-24T12:19:19.103Z,982.3
2023-11-24T12:20:22.097Z,982.5
2023-11-24T12:21:24.182Z,982.3
2023-11-24T12:22:26.073Z,982.3
2023-11-24T12:23:28.065Z,982.2
2023-11-24T12:24:30.069Z,982.2
2023-11-24T12:25:32.083Z,982.2
2023-11-24T12:26:34.085Z,982.1
2023-11-24T12:27:36.084Z,982.1
2023-11-24T12:28:38.108Z,982.1
2023-11-24T12:29:40.065Z,982.1
2023-11-24T12:30:42.290Z,982.1
2023-11-24T12:31:44.216Z,982.1
2023-11-24T12:32:46.337Z,982.1
2023-11-24T12:33:48.087Z,982.1
2023-11-24T12:34:50.090Z,982.1
2023-11-24T12:35:52.145Z,982.1
2023-11-24T12:36:54.165Z,982.2
2023-11-24T12:37:56.072Z,982.2
2023-11-24T12:38:58.074Z,982.2
2023-11-24T12:40:00.293Z,982.3
2023-11-24T12:41:02.124Z,982.2
2023-11-24T12:42:04.285Z,982.3
2023-11-24T12:43:06.139Z,982.3
2023-11-24T12:44:08.424Z,982.3
2023-11-24T12:45:10.320Z,982.3
2023-11-24T12:46:15.019Z,982.3
2023-11-24T12:47:16.156Z,982.3
2023-11-24T12:48:18.126Z,982.3
2023-11-24T12:49:20.208Z,982.3
2023-11-24T12:50:22.134Z,982.4
2023-11-24T12:51:24.148Z,982.3
2023-11-24T12:52:26.142Z,982.3
2023-11-24T12:53:30.886Z,982.3
2023-11-24T12:54:33.048Z,982.3
2023-11-24T12:55:37.091Z,982.2
2023-11-24T12:56:38.253Z,982.3
2023-11-24T12:57:40.189Z,982.3
2023-11-24T12:58:42.113Z,982.3
2023-11-24T12:59:47.326Z,982.3
2023-11-24T13:00:49.129Z,982.2
2023-11-24T13:01:51.128Z,982.2
2023-11-24T13:02:53.159Z,982.2
2023-11-24T13:03:55.597Z,982.2
2023-11-24T13:04:57.245Z,982.3
2023-11-24T13:06:00.100Z,982.3
2023-11-24T13:07:03.294Z,982.3
2023-11-24T13:08:04.187Z,982.3
2023-11-24T13:09:06.156Z,982.3
2023-11-24T13:10:08.163Z,982.3
2023-11-24T13:11:10.111Z,982.3
2023-11-24T13:12:16.377Z,982.3
2023-11-24T13:13:13.123Z,982.3
2023-11-24T13:14:14.311Z,982.3
2023-11-24T13:15:16.614Z,982.3
2023-11-24T13:16:18.167Z,982.2
2023-11-24T13:17:23.054Z,982.3
2023-11-24T13:18:25.194Z,982.2